sensor_id;sensor_type;location;lat;lon;timestamp;temperature;humidity
21298;DHT22;10808;48.010;11.326;2023-01-23T00:01:29;-1.20;99.90
21298;DHT22;10808;48.010;11.326;2023-01-23T00:03:56;-1.20;99.90
21298;DHT22;10808;48.010;11.326;2023-01-23T00:06:23;-1.20;99.90
21298;DHT22;10808;48.010;11.326;2023-01-23T00:08:50;-1.30;99.90
21298;DHT22;10808;48.010;11.326;2023-01-23T00:11:22;-1.30;99.90
21298;DHT22;10808;48.010;11.326;2023-01-23T00:13:48;-1.20;99.90
21298;DHT22;10808;48.010;11.326;2023-01-23T00:16:17;-1.20;99.90
21298;DHT22;10808;48.010;11.326;2023-01-23T00:18:43;-1.20;99.90
21298;DHT22;10808;48.010;11.326;2023-01-23T00:21:22;-1.20;99.90
21298;DHT22;10808;48.010;11.326;2023-01-23T00:23:51;-1.20;99.90
21298;DHT22;10808;48.010;11.326;2023-01-23T00:26:19;-1.20;99.90
21298;DHT22;10808;48.010;11.326;2023-01-23T00:28:46;-1.20;99.90
21298;DHT22;10808;48.010;11.326;2023-01-23T00:31:14;-1.20;99.90
21298;DHT22;10808;48.010;11.326;2023-01-23T00:33:42;-1.20;99.90
21298;DHT22;10808;48.010;11.326;2023-01-23T00:36:09;-1.10;99.90
21298;DHT22;10808;48.010;11.326;2023-01-23T00:38:35;-1.20;99.90
21298;DHT22;10808;48.010;11.326;2023-01-23T00:41:01;-1.20;99.90
21298;DHT22;10808;48.010;11.326;2023-01-23T00:43:28;-1.30;99.90
21298;DHT22;10808;48.010;11.326;2023-01-23T00:45:55;-1.20;99.90
21298;DHT22;10808;48.010;11.326;2023-01-23T00:48:22;-1.20;99.90
21298;DHT22;10808;48.010;11.326;2023-01-23T00:50:48;-1.20;99.90
21298;DHT22;10808;48.010;11.326;2023-01-23T00:53:14;-1.20;99.90
21298;DHT22;10808;48.010;11.326;2023-01-23T00:55:40;-1.10;99.90
21298;DHT22;10808;48.010;11.326;2023-01-23T00:58:07;-1.00;99.90
21298;DHT22;10808;48.010;11.326;2023-01-23T01:00:34;-1.00;99.90
21298;DHT22;10808;48.010;11.326;2023-01-23T01:03:00;-1.00;99.90
21298;DHT22;10808;48.010;11.326;2023-01-23T01:05:26;-1.00;99.90
21298;DHT22;10808;48.010;11.326;2023-01-23T01:07:52;-1.00;99.90
21298;DHT22;10808;48.010;11.326;2023-01-23T01:10:18;-1.00;99.90
21298;DHT22;10808;48.010;11.326;2023-01-23T01:12:45;-1.10;99.90
21298;DHT22;10808;48.010;11.326;2023-01-23T01:15:12;-1.10;99.90
21298;DHT22;10808;48.010;11.326;2023-01-23T01:17:39;-1.10;99.90
21298;DHT22;10808;48.010;11.326;2023-01-23T01:20:06;-1.10;99.90
21298;DHT22;10808;48.010;11.326;2023-01-23T01:22:32;-1.10;99.90
21298;DHT22;10808;48.010;11.326;2023-01-23T01:24:58;-1.10;99.90
21298;DHT22;10808;48.010;11.326;2023-01-23T01:27:24;-1.10;99.90
21298;DHT22;10808;48.010;11.326;2023-01-23T01:29:50;-1.10;99.90
21298;DHT22;10808;48.010;11.326;2023-01-23T01:32:16;-1.10;99.90
21298;DHT22;10808;48.010;11.326;2023-01-23T01:34:42;-1.10;99.90
21298;DHT22;10808;48.010;11.326;2023-01-23T01:37:08;-1.00;99.90
21298;DHT22;10808;48.010;11.326;2023-01-23T01:39:34;-1.00;99.90
21298;DHT22;10808;48.010;11.326;2023-01-23T01:42:00;-1.00;99.90
21298;DHT22;10808;48.010;11.326;2023-01-23T01:44:26;-1.10;99.90
21298;DHT22;10808;48.010;11.326;2023-01-23T01:46:52;-1.20;99.90
21298;DHT22;10808;48.010;11.326;2023-01-23T01:49:26;-1.20;99.90
21298;DHT22;10808;48.010;11.326;2023-01-23T01:51:56;-1.30;99.90
21298;DHT22;10808;48.010;11.326;2023-01-23T01:54:31;-1.30;99.90
21298;DHT22;10808;48.010;11.326;2023-01-23T01:57:17;-1.30;99.90
21298;DHT22;10808;48.010;11.326;2023-01-23T01:59:49;-1.30;99.90
21298;DHT22;10808;48.010;11.326;2023-01-23T02:02:22;-1.30;99.90
21298;DHT22;10808;48.010;11.326;2023-01-23T02:04:53;-1.30;99.90
21298;DHT22;10808;48.010;11.326;2023-01-23T02:07:39;-1.40;99.90
21298;DHT22;10808;48.010;11.326;2023-01-23T02:10:08;-1.40;99.90
21298;DHT22;10808;48.010;11.326;2023-01-23T02:12:34;-1.40;99.90
21298;DHT22;10808;48.010;11.326;2023-01-23T02:15:02;-1.40;99.90
21298;DHT22;10808;48.010;11.326;2023-01-23T02:17:30;-1.40;99.90
21298;DHT22;10808;48.010;11.326;2023-01-23T02:20:12;-1.40;99.90
21298;DHT22;10808;48.010;11.326;2023-01-23T02:28:13;-1.60;99.90
21298;DHT22;10808;48.010;11.326;2023-01-23T02:30:41;-1.60;99.90
21298;DHT22;10808;48.010;11.326;2023-01-23T02:36:01;-1.60;99.90
21298;DHT22;10808;48.010;11.326;2023-01-23T02:38:36;-1.60;99.90
21298;DHT22;10808;48.010;11.326;2023-01-23T02:41:06;-1.60;99.90
21298;DHT22;10808;48.010;11.326;2023-01-23T02:43:34;-1.70;99.90
21298;DHT22;10808;48.010;11.326;2023-01-23T02:46:06;-1.60;99.90
21298;DHT22;10808;48.010;11.326;2023-01-23T02:48:33;-1.60;99.90
21298;DHT22;10808;48.010;11.326;2023-01-23T02:50:59;-1.70;99.90
21298;DHT22;10808;48.010;11.326;2023-01-23T02:53:25;-1.60;99.90
21298;DHT22;10808;48.010;11.326;2023-01-23T02:55:52;-1.60;99.90
21298;DHT22;10808;48.010;11.326;2023-01-23T02:58:18;-1.60;99.90
21298;DHT22;10808;48.010;11.326;2023-01-23T03:01:03;-1.60;99.90
21298;DHT22;10808;48.010;11.326;2023-01-23T03:03:29;-1.50;99.90
21298;DHT22;10808;48.010;11.326;2023-01-23T03:05:56;-1.50;99.90
21298;DHT22;10808;48.010;11.326;2023-01-23T03:08:23;-1.50;99.90
21298;DHT22;10808;48.010;11.326;2023-01-23T03:10:59;-1.40;99.90
21298;DHT22;10808;48.010;11.326;2023-01-23T03:13:25;-1.40;99.90
21298;DHT22;10808;48.010;11.326;2023-01-23T03:15:51;-1.40;99.90
21298;DHT22;10808;48.010;11.326;2023-01-23T03:18:23;-1.40;99.90
21298;DHT22;10808;48.010;11.326;2023-01-23T03:20:49;-1.40;99.90
21298;DHT22;10808;48.010;11.326;2023-01-23T03:23:15;-1.40;99.90
21298;DHT22;10808;48.010;11.326;2023-01-23T03:25:42;-1.40;99.90
21298;DHT22;10808;48.010;11.326;2023-01-23T03:28:09;-1.40;99.90
21298;DHT22;10808;48.010;11.326;2023-01-23T03:30:58;-1.40;99.90
21298;DHT22;10808;48.010;11.326;2023-01-23T03:33:24;-1.40;99.90
21298;DHT22;10808;48.010;11.326;2023-01-23T03:35:50;-1.40;99.90
21298;DHT22;10808;48.010;11.326;2023-01-23T03:38:16;-1.40;99.90
21298;DHT22;10808;48.010;11.326;2023-01-23T03:40:44;-1.40;99.90
21298;DHT22;10808;48.010;11.326;2023-01-23T03:43:32;-1.40;99.90
21298;DHT22;10808;48.010;11.326;2023-01-23T03:45:58;-1.30;99.90
21298;DHT22;10808;48.010;11.326;2023-01-23T03:48:24;-1.30;99.90
21298;DHT22;10808;48.010;11.326;2023-01-23T03:50:50;-1.30;99.90
21298;DHT22;10808;48.010;11.326;2023-01-23T03:53:17;-1.30;99.90
21298;DHT22;10808;48.010;11.326;2023-01-23T03:55:46;-1.30;99.90
21298;DHT22;10808;48.010;11.326;2023-01-23T03:58:12;-1.30;99.90
21298;DHT22;10808;48.010;11.326;2023-01-23T04:00:38;-1.30;99.90
21298;DHT22;10808;48.010;11.326;2023-01-23T04:03:04;-1.30;99.90
21298;DHT22;10808;48.010;11.326;2023-01-23T04:05:30;-1.30;99.90
21298;DHT22;10808;48.010;11.326;2023-01-23T04:07:56;-1.20;99.90
21298;DHT22;10808;48.010;11.326;2023-01-23T04:10:22;-1.20;99.90
21298;DHT22;10808;48.010;11.326;2023-01-23T04:12:48;-1.20;99.90
21298;DHT22;10808;48.010;11.326;2023-01-23T04:15:15;-1.20;99.90
21298;DHT22;10808;48.010;11.326;2023-01-23T04:17:41;-1.20;99.90
21298;DHT22;10808;48.010;11.326;2023-01-23T04:20:08;-1.20;99.90
21298;DHT22;10808;48.010;11.326;2023-01-23T04:22:34;-1.20;99.90
21298;DHT22;10808;48.010;11.326;2023-01-23T04:25:00;-1.20;99.90
21298;DHT22;10808;48.010;11.326;2023-01-23T04:27:26;-1.20;99.90
21298;DHT22;10808;48.010;11.326;2023-01-23T04:29:52;-1.20;99.90
21298;DHT22;10808;48.010;11.326;2023-01-23T04:32:18;-1.20;99.90
21298;DHT22;10808;48.010;11.326;2023-01-23T04:34:44;-1.20;99.90
21298;DHT22;10808;48.010;11.326;2023-01-23T04:37:10;-1.20;99.90
21298;DHT22;10808;48.010;11.326;2023-01-23T04:39:36;-1.10;99.90
21298;DHT22;10808;48.010;11.326;2023-01-23T04:42:02;-1.10;99.90
21298;DHT22;10808;48.010;11.326;2023-01-23T04:44:28;-1.10;99.90
21298;DHT22;10808;48.010;11.326;2023-01-23T04:46:54;-1.20;99.90
21298;DHT22;10808;48.010;11.326;2023-01-23T04:49:22;-1.10;99.90
21298;DHT22;10808;48.010;11.326;2023-01-23T04:51:48;-1.10;99.90
21298;DHT22;10808;48.010;11.326;2023-01-23T04:54:15;-1.20;99.90
21298;DHT22;10808;48.010;11.326;2023-01-23T04:56:42;-1.20;99.90
21298;DHT22;10808;48.010;11.326;2023-01-23T04:59:09;-1.10;99.90
21298;DHT22;10808;48.010;11.326;2023-01-23T05:01:35;-1.10;99.90
21298;DHT22;10808;48.010;11.326;2023-01-23T05:04:01;-1.20;99.90
21298;DHT22;10808;48.010;11.326;2023-01-23T05:06:27;-1.20;99.90
21298;DHT22;10808;48.010;11.326;2023-01-23T05:08:53;-1.10;99.90
21298;DHT22;10808;48.010;11.326;2023-01-23T05:11:19;-1.10;99.90
21298;DHT22;10808;48.010;11.326;2023-01-23T05:13:45;-1.10;99.90
21298;DHT22;10808;48.010;11.326;2023-01-23T05:16:12;-1.10;99.90
21298;DHT22;10808;48.010;11.326;2023-01-23T05:18:38;-1.00;99.90
21298;DHT22;10808;48.010;11.326;2023-01-23T05:21:04;-1.00;99.90
21298;DHT22;10808;48.010;11.326;2023-01-23T05:23:30;-1.10;99.90
21298;DHT22;10808;48.010;11.326;2023-01-23T05:25:56;-1.10;99.90
21298;DHT22;10808;48.010;11.326;2023-01-23T05:28:22;-1.10;99.90
21298;DHT22;10808;48.010;11.326;2023-01-23T05:30:48;-1.10;99.90
21298;DHT22;10808;48.010;11.326;2023-01-23T05:33:14;-1.10;99.90
21298;DHT22;10808;48.010;11.326;2023-01-23T05:35:40;-1.10;99.90
21298;DHT22;10808;48.010;11.326;2023-01-23T05:38:06;-1.10;99.90
21298;DHT22;10808;48.010;11.326;2023-01-23T05:40:32;-1.00;99.90
21298;DHT22;10808;48.010;11.326;2023-01-23T05:42:58;-1.00;99.90
21298;DHT22;10808;48.010;11.326;2023-01-23T05:45:24;-1.00;99.90
21298;DHT22;10808;48.010;11.326;2023-01-23T05:47:51;-1.00;99.90
21298;DHT22;10808;48.010;11.326;2023-01-23T05:50:18;-1.00;99.90
21298;DHT22;10808;48.010;11.326;2023-01-23T05:52:45;-1.00;99.90
21298;DHT22;10808;48.010;11.326;2023-01-23T05:55:11;-1.00;99.90
21298;DHT22;10808;48.010;11.326;2023-01-23T05:57:37;-0.90;99.90
21298;DHT22;10808;48.010;11.326;2023-01-23T06:00:05;-1.00;99.90
21298;DHT22;10808;48.010;11.326;2023-01-23T06:02:32;-1.00;99.90
21298;DHT22;10808;48.010;11.326;2023-01-23T06:04:58;-0.90;99.90
21298;DHT22;10808;48.010;11.326;2023-01-23T06:07:25;-0.90;99.90
21298;DHT22;10808;48.010;11.326;2023-01-23T06:09:51;-0.90;99.90
21298;DHT22;10808;48.010;11.326;2023-01-23T06:12:17;-0.90;99.90
21298;DHT22;10808;48.010;11.326;2023-01-23T06:14:43;-0.90;99.90
21298;DHT22;10808;48.010;11.326;2023-01-23T06:17:11;-0.90;99.90
21298;DHT22;10808;48.010;11.326;2023-01-23T06:19:37;-0.90;99.90
21298;DHT22;10808;48.010;11.326;2023-01-23T06:22:03;-0.90;99.90
21298;DHT22;10808;48.010;11.326;2023-01-23T06:24:29;-0.80;99.90
21298;DHT22;10808;48.010;11.326;2023-01-23T06:26:55;-0.80;99.90
21298;DHT22;10808;48.010;11.326;2023-01-23T06:29:21;-0.90;99.90
21298;DHT22;10808;48.010;11.326;2023-01-23T06:31:47;-0.90;99.90
21298;DHT22;10808;48.010;11.326;2023-01-23T06:34:14;-0.90;99.90
21298;DHT22;10808;48.010;11.326;2023-01-23T06:36:40;-0.90;99.90
21298;DHT22;10808;48.010;11.326;2023-01-23T06:39:07;-0.80;99.90
21298;DHT22;10808;48.010;11.326;2023-01-23T06:41:36;-0.80;99.90
21298;DHT22;10808;48.010;11.326;2023-01-23T06:44:02;-0.70;99.90
21298;DHT22;10808;48.010;11.326;2023-01-23T06:46:28;-0.70;99.90
21298;DHT22;10808;48.010;11.326;2023-01-23T06:48:54;-0.70;99.90
21298;DHT22;10808;48.010;11.326;2023-01-23T06:51:20;-0.70;99.90
21298;DHT22;10808;48.010;11.326;2023-01-23T06:53:46;-0.70;99.90
21298;DHT22;10808;48.010;11.326;2023-01-23T06:56:12;-0.80;99.90
21298;DHT22;10808;48.010;11.326;2023-01-23T06:58:38;-0.70;99.90
21298;DHT22;10808;48.010;11.326;2023-01-23T07:01:10;-0.70;99.90
21298;DHT22;10808;48.010;11.326;2023-01-23T07:03:36;-0.80;99.90
21298;DHT22;10808;48.010;11.326;2023-01-23T07:06:03;-0.70;99.90
21298;DHT22;10808;48.010;11.326;2023-01-23T07:08:32;-0.70;99.90
21298;DHT22;10808;48.010;11.326;2023-01-23T07:10:59;-0.80;99.90
21298;DHT22;10808;48.010;11.326;2023-01-23T07:13:25;-0.80;99.90
21298;DHT22;10808;48.010;11.326;2023-01-23T07:15:52;-0.80;99.90
21298;DHT22;10808;48.010;11.326;2023-01-23T07:18:18;-0.90;99.90
21298;DHT22;10808;48.010;11.326;2023-01-23T07:20:44;-0.80;99.90
21298;DHT22;10808;48.010;11.326;2023-01-23T07:23:10;-0.80;99.90
21298;DHT22;10808;48.010;11.326;2023-01-23T07:25:37;-0.80;99.90
21298;DHT22;10808;48.010;11.326;2023-01-23T07:28:03;-0.80;99.90
21298;DHT22;10808;48.010;11.326;2023-01-23T07:30:31;-0.80;99.90
21298;DHT22;10808;48.010;11.326;2023-01-23T07:32:57;-0.80;99.90
21298;DHT22;10808;48.010;11.326;2023-01-23T07:35:23;-0.80;99.90
21298;DHT22;10808;48.010;11.326;2023-01-23T07:37:49;-0.80;99.90
21298;DHT22;10808;48.010;11.326;2023-01-23T07:40:16;-0.80;99.90
21298;DHT22;10808;48.010;11.326;2023-01-23T07:42:42;-0.80;99.90
21298;DHT22;10808;48.010;11.326;2023-01-23T07:45:09;-0.80;99.90
21298;DHT22;10808;48.010;11.326;2023-01-23T07:47:36;-0.80;99.90
21298;DHT22;10808;48.010;11.326;2023-01-23T07:50:09;-0.80;99.90
21298;DHT22;10808;48.010;11.326;2023-01-23T07:52:36;-0.80;99.90
21298;DHT22;10808;48.010;11.326;2023-01-23T07:55:03;-0.80;99.90
21298;DHT22;10808;48.010;11.326;2023-01-23T07:57:29;-0.70;99.90
21298;DHT22;10808;48.010;11.326;2023-01-23T07:59:55;-0.70;99.90
21298;DHT22;10808;48.010;11.326;2023-01-23T08:02:21;-0.70;99.90
21298;DHT22;10808;48.010;11.326;2023-01-23T08:04:47;-0.70;99.90
21298;DHT22;10808;48.010;11.326;2023-01-23T08:07:13;-0.70;99.90
21298;DHT22;10808;48.010;11.326;2023-01-23T08:09:39;-0.70;99.90
21298;DHT22;10808;48.010;11.326;2023-01-23T08:12:05;-0.60;99.90
21298;DHT22;10808;48.010;11.326;2023-01-23T08:14:31;-0.70;99.90
21298;DHT22;10808;48.010;11.326;2023-01-23T08:16:57;-0.60;99.90
21298;DHT22;10808;48.010;11.326;2023-01-23T08:19:24;-0.60;99.90
21298;DHT22;10808;48.010;11.326;2023-01-23T08:21:52;-0.60;99.90
21298;DHT22;10808;48.010;11.326;2023-01-23T08:24:18;-0.60;99.90
21298;DHT22;10808;48.010;11.326;2023-01-23T08:26:44;-0.50;99.90
21298;DHT22;10808;48.010;11.326;2023-01-23T08:29:11;-0.50;99.90
21298;DHT22;10808;48.010;11.326;2023-01-23T08:31:38;-0.40;99.90
21298;DHT22;10808;48.010;11.326;2023-01-23T08:34:04;-0.40;99.90
21298;DHT22;10808;48.010;11.326;2023-01-23T08:36:31;-0.40;99.90
21298;DHT22;10808;48.010;11.326;2023-01-23T08:38:58;-0.40;99.90
21298;DHT22;10808;48.010;11.326;2023-01-23T08:41:24;-0.40;99.90
21298;DHT22;10808;48.010;11.326;2023-01-23T08:43:50;-0.40;99.90
21298;DHT22;10808;48.010;11.326;2023-01-23T08:46:16;-0.40;99.90
21298;DHT22;10808;48.010;11.326;2023-01-23T08:48:42;-0.40;99.90
21298;DHT22;10808;48.010;11.326;2023-01-23T08:51:12;-0.30;99.90
21298;DHT22;10808;48.010;11.326;2023-01-23T08:53:39;-0.30;99.90
21298;DHT22;10808;48.010;11.326;2023-01-23T08:56:07;-0.30;99.90
21298;DHT22;10808;48.010;11.326;2023-01-23T08:58:35;-0.30;99.90
21298;DHT22;10808;48.010;11.326;2023-01-23T09:01:01;-0.30;99.90
21298;DHT22;10808;48.010;11.326;2023-01-23T09:03:27;-0.30;99.90
21298;DHT22;10808;48.010;11.326;2023-01-23T09:05:53;-0.30;99.90
21298;DHT22;10808;48.010;11.326;2023-01-23T09:08:19;-0.20;99.90
21298;DHT22;10808;48.010;11.326;2023-01-23T09:10:45;-0.20;99.90
21298;DHT22;10808;48.010;11.326;2023-01-23T09:13:11;-0.20;99.90
21298;DHT22;10808;48.010;11.326;2023-01-23T09:15:38;-0.20;99.90
21298;DHT22;10808;48.010;11.326;2023-01-23T09:18:05;-0.20;99.90
21298;DHT22;10808;48.010;11.326;2023-01-23T09:20:31;-0.20;99.90
21298;DHT22;10808;48.010;11.326;2023-01-23T09:22:57;-0.20;99.90
21298;DHT22;10808;48.010;11.326;2023-01-23T09:25:23;-0.10;99.90
21298;DHT22;10808;48.010;11.326;2023-01-23T09:27:49;-0.10;99.90
21298;DHT22;10808;48.010;11.326;2023-01-23T09:30:15;0.00;99.90
21298;DHT22;10808;48.010;11.326;2023-01-23T09:32:41;0.00;99.90
21298;DHT22;10808;48.010;11.326;2023-01-23T09:35:08;0.00;99.90
21298;DHT22;10808;48.010;11.326;2023-01-23T09:37:35;0.00;99.90
21298;DHT22;10808;48.010;11.326;2023-01-23T09:40:22;0.00;99.90
21298;DHT22;10808;48.010;11.326;2023-01-23T09:42:49;0.00;99.90
21298;DHT22;10808;48.010;11.326;2023-01-23T09:45:19;0.00;99.90
21298;DHT22;10808;48.010;11.326;2023-01-23T09:47:53;0.00;99.90
21298;DHT22;10808;48.010;11.326;2023-01-23T09:50:26;0.10;99.90
21298;DHT22;10808;48.010;11.326;2023-01-23T09:52:58;0.10;99.90
21298;DHT22;10808;48.010;11.326;2023-01-23T09:55:48;0.10;99.90
21298;DHT22;10808;48.010;11.326;2023-01-23T09:58:25;0.10;99.90
21298;DHT22;10808;48.010;11.326;2023-01-23T10:00:52;0.20;99.90
21298;DHT22;10808;48.010;11.326;2023-01-23T10:03:19;0.10;99.90
21298;DHT22;10808;48.010;11.326;2023-01-23T10:06:20;0.10;99.90
21298;DHT22;10808;48.010;11.326;2023-01-23T10:17:23;0.20;99.90
21298;DHT22;10808;48.010;11.326;2023-01-23T10:20:41;0.20;99.90
21298;DHT22;10808;48.010;11.326;2023-01-23T10:23:16;0.10;99.90
21298;DHT22;10808;48.010;11.326;2023-01-23T10:25:46;0.10;99.90
21298;DHT22;10808;48.010;11.326;2023-01-23T10:28:36;0.10;99.90
21298;DHT22;10808;48.010;11.326;2023-01-23T10:31:10;0.10;99.90
21298;DHT22;10808;48.010;11.326;2023-01-23T10:33:57;0.10;99.90
21298;DHT22;10808;48.010;11.326;2023-01-23T10:36:57;0.10;99.90
21298;DHT22;10808;48.010;11.326;2023-01-23T10:39:24;0.20;99.90
21298;DHT22;10808;48.010;11.326;2023-01-23T10:41:51;0.20;99.90
21298;DHT22;10808;48.010;11.326;2023-01-23T10:44:18;0.20;99.90
21298;DHT22;10808;48.010;11.326;2023-01-23T10:46:55;0.30;99.90
21298;DHT22;10808;48.010;11.326;2023-01-23T10:49:31;0.30;99.90
21298;DHT22;10808;48.010;11.326;2023-01-23T10:51:57;0.40;99.90
21298;DHT22;10808;48.010;11.326;2023-01-23T10:54:25;0.40;99.90
21298;DHT22;10808;48.010;11.326;2023-01-23T10:56:58;0.40;99.90
21298;DHT22;10808;48.010;11.326;2023-01-23T10:59:41;0.50;99.90
21298;DHT22;10808;48.010;11.326;2023-01-23T11:02:31;0.50;99.90
21298;DHT22;10808;48.010;11.326;2023-01-23T11:04:58;0.50;99.90
21298;DHT22;10808;48.010;11.326;2023-01-23T11:07:27;0.50;99.90
21298;DHT22;10808;48.010;11.326;2023-01-23T11:10:11;0.50;99.90
21298;DHT22;10808;48.010;11.326;2023-01-23T11:12:51;0.50;99.90
21298;DHT22;10808;48.010;11.326;2023-01-23T11:15:22;0.50;99.90
21298;DHT22;10808;48.010;11.326;2023-01-23T11:17:54;0.50;99.90
21298;DHT22;10808;48.010;11.326;2023-01-23T11:20:27;0.50;99.90
21298;DHT22;10808;48.010;11.326;2023-01-23T11:25:46;0.40;99.90
21298;DHT22;10808;48.010;11.326;2023-01-23T11:28:33;0.40;99.90
21298;DHT22;10808;48.010;11.326;2023-01-23T11:31:20;0.50;99.90
21298;DHT22;10808;48.010;11.326;2023-01-23T11:34:03;0.50;99.90
21298;DHT22;10808;48.010;11.326;2023-01-23T11:36:58;0.50;99.90
21298;DHT22;10808;48.010;11.326;2023-01-23T11:39:49;0.60;99.90
21298;DHT22;10808;48.010;11.326;2023-01-23T11:42:18;0.60;99.90
21298;DHT22;10808;48.010;11.326;2023-01-23T11:44:45;0.70;99.90
21298;DHT22;10808;48.010;11.326;2023-01-23T11:58:11;0.80;99.90
21298;DHT22;10808;48.010;11.326;2023-01-23T12:03:35;0.70;99.90
21298;DHT22;10808;48.010;11.326;2023-01-23T12:14:26;1.10;99.90
21298;DHT22;10808;48.010;11.326;2023-01-23T12:25:37;1.40;99.90
21298;DHT22;10808;48.010;11.326;2023-01-23T12:28:20;1.50;99.90
21298;DHT22;10808;48.010;11.326;2023-01-23T12:34:24;1.60;99.90
21298;DHT22;10808;48.010;11.326;2023-01-23T12:40:12;1.40;99.90
21298;DHT22;10808;48.010;11.326;2023-01-23T12:43:01;1.40;99.90
21298;DHT22;10808;48.010;11.326;2023-01-23T12:45:30;1.40;99.90
21298;DHT22;10808;48.010;11.326;2023-01-23T12:48:11;1.30;99.90
21298;DHT22;10808;48.010;11.326;2023-01-23T12:50:52;1.30;99.90
21298;DHT22;10808;48.010;11.326;2023-01-23T12:53:21;1.30;99.90
21298;DHT22;10808;48.010;11.326;2023-01-23T12:56:04;1.30;99.90
21298;DHT22;10808;48.010;11.326;2023-01-23T12:58:34;1.30;99.90
21298;DHT22;10808;48.010;11.326;2023-01-23T13:01:23;1.30;99.90
21298;DHT22;10808;48.010;11.326;2023-01-23T13:09:28;1.20;99.90
21298;DHT22;10808;48.010;11.326;2023-01-23T13:12:19;1.20;99.90
21298;DHT22;10808;48.010;11.326;2023-01-23T13:14:48;1.10;99.90
21298;DHT22;10808;48.010;11.326;2023-01-23T13:17:46;1.10;99.90
21298;DHT22;10808;48.010;11.326;2023-01-23T13:20:29;1.10;99.90
21298;DHT22;10808;48.010;11.326;2023-01-23T13:23:21;1.10;99.90
21298;DHT22;10808;48.010;11.326;2023-01-23T13:25:48;1.20;99.90
21298;DHT22;10808;48.010;11.326;2023-01-23T13:28:39;1.20;99.90
21298;DHT22;10808;48.010;11.326;2023-01-23T13:31:24;1.30;99.90
21298;DHT22;10808;48.010;11.326;2023-01-23T13:33:51;1.30;99.90
21298;DHT22;10808;48.010;11.326;2023-01-23T13:36:32;1.30;99.90
21298;DHT22;10808;48.010;11.326;2023-01-23T13:41:42;1.40;99.90
21298;DHT22;10808;48.010;11.326;2023-01-23T13:44:17;1.40;99.90
21298;DHT22;10808;48.010;11.326;2023-01-23T13:52:31;1.40;99.90
21298;DHT22;10808;48.010;11.326;2023-01-23T13:55:28;1.30;99.90
21298;DHT22;10808;48.010;11.326;2023-01-23T13:58:24;1.30;99.90
21298;DHT22;10808;48.010;11.326;2023-01-23T14:01:40;1.30;99.90
21298;DHT22;10808;48.010;11.326;2023-01-23T14:04:21;1.30;99.90
21298;DHT22;10808;48.010;11.326;2023-01-23T14:07:29;1.20;99.90
21298;DHT22;10808;48.010;11.326;2023-01-23T14:10:27;1.20;99.90
21298;DHT22;10808;48.010;11.326;2023-01-23T14:13:13;1.20;99.90
21298;DHT22;10808;48.010;11.326;2023-01-23T14:15:43;1.30;99.90
21298;DHT22;10808;48.010;11.326;2023-01-23T14:21:05;1.30;99.90
21298;DHT22;10808;48.010;11.326;2023-01-23T14:23:40;1.30;99.90
21298;DHT22;10808;48.010;11.326;2023-01-23T14:26:09;1.30;99.90
21298;DHT22;10808;48.010;11.326;2023-01-23T14:28:36;1.30;99.90
21298;DHT22;10808;48.010;11.326;2023-01-23T14:31:20;1.30;99.90
21298;DHT22;10808;48.010;11.326;2023-01-23T14:33:47;1.30;99.90
21298;DHT22;10808;48.010;11.326;2023-01-23T14:36:14;1.30;99.90
21298;DHT22;10808;48.010;11.326;2023-01-23T14:38:44;1.40;99.90
21298;DHT22;10808;48.010;11.326;2023-01-23T14:41:10;1.30;99.90
21298;DHT22;10808;48.010;11.326;2023-01-23T14:43:37;1.30;99.90
21298;DHT22;10808;48.010;11.326;2023-01-23T14:46:19;1.30;99.90
21298;DHT22;10808;48.010;11.326;2023-01-23T14:48:51;1.30;99.90
21298;DHT22;10808;48.010;11.326;2023-01-23T14:51:22;1.30;99.90
21298;DHT22;10808;48.010;11.326;2023-01-23T14:54:16;1.30;99.90
21298;DHT22;10808;48.010;11.326;2023-01-23T14:56:44;1.30;99.90
21298;DHT22;10808;48.010;11.326;2023-01-23T14:59:37;1.30;99.90
21298;DHT22;10808;48.010;11.326;2023-01-23T15:05:18;1.30;99.90
21298;DHT22;10808;48.010;11.326;2023-01-23T15:07:56;1.30;99.90
21298;DHT22;10808;48.010;11.326;2023-01-23T15:10:28;1.30;99.90
21298;DHT22;10808;48.010;11.326;2023-01-23T15:13:04;1.30;99.90
21298;DHT22;10808;48.010;11.326;2023-01-23T15:15:32;1.30;99.90
21298;DHT22;10808;48.010;11.326;2023-01-23T15:18:00;1.20;99.90
21298;DHT22;10808;48.010;11.326;2023-01-23T15:20:38;1.20;99.90
21298;DHT22;10808;48.010;11.326;2023-01-23T15:23:28;1.20;99.90
21298;DHT22;10808;48.010;11.326;2023-01-23T15:28:54;1.30;99.90
21298;DHT22;10808;48.010;11.326;2023-01-23T15:31:29;1.30;99.90
21298;DHT22;10808;48.010;11.326;2023-01-23T15:36:46;1.30;99.90
21298;DHT22;10808;48.010;11.326;2023-01-23T15:39:23;1.40;99.90
21298;DHT22;10808;48.010;11.326;2023-01-23T15:44:27;1.40;99.90
21298;DHT22;10808;48.010;11.326;2023-01-23T15:46:54;1.40;99.90
21298;DHT22;10808;48.010;11.326;2023-01-23T15:49:20;1.30;99.90
21298;DHT22;10808;48.010;11.326;2023-01-23T15:51:46;1.30;99.90
21298;DHT22;10808;48.010;11.326;2023-01-23T15:54:27;1.30;99.90
21298;DHT22;10808;48.010;11.326;2023-01-23T15:56:53;1.30;99.90
21298;DHT22;10808;48.010;11.326;2023-01-23T15:59:19;1.30;99.90
21298;DHT22;10808;48.010;11.326;2023-01-23T16:01:47;1.30;99.90
21298;DHT22;10808;48.010;11.326;2023-01-23T16:04:13;1.40;99.90
21298;DHT22;10808;48.010;11.326;2023-01-23T16:06:39;1.30;99.90
21298;DHT22;10808;48.010;11.326;2023-01-23T16:09:06;1.30;99.90
21298;DHT22;10808;48.010;11.326;2023-01-23T16:11:33;1.30;99.90
21298;DHT22;10808;48.010;11.326;2023-01-23T16:14:00;1.40;99.90
21298;DHT22;10808;48.010;11.326;2023-01-23T16:16:27;1.30;99.90
21298;DHT22;10808;48.010;11.326;2023-01-23T16:18:53;1.30;99.90
21298;DHT22;10808;48.010;11.326;2023-01-23T16:21:26;1.30;99.90
21298;DHT22;10808;48.010;11.326;2023-01-23T16:23:53;1.30;99.90
21298;DHT22;10808;48.010;11.326;2023-01-23T16:26:21;1.30;99.90
21298;DHT22;10808;48.010;11.326;2023-01-23T16:28:48;1.30;99.90
21298;DHT22;10808;48.010;11.326;2023-01-23T16:31:15;1.30;99.90
21298;DHT22;10808;48.010;11.326;2023-01-23T16:33:42;1.30;99.90
21298;DHT22;10808;48.010;11.326;2023-01-23T16:36:18;1.40;99.90
21298;DHT22;10808;48.010;11.326;2023-01-23T16:38:52;1.30;99.90
21298;DHT22;10808;48.010;11.326;2023-01-23T16:41:18;1.30;99.90
21298;DHT22;10808;48.010;11.326;2023-01-23T16:43:44;1.30;99.90
21298;DHT22;10808;48.010;11.326;2023-01-23T16:46:11;1.20;99.90
21298;DHT22;10808;48.010;11.326;2023-01-23T16:48:37;1.30;99.90
21298;DHT22;10808;48.010;11.326;2023-01-23T16:51:10;1.20;99.90
21298;DHT22;10808;48.010;11.326;2023-01-23T16:53:43;1.30;99.90
21298;DHT22;10808;48.010;11.326;2023-01-23T16:56:21;1.30;99.90
21298;DHT22;10808;48.010;11.326;2023-01-23T16:58:48;1.30;99.90
21298;DHT22;10808;48.010;11.326;2023-01-23T17:01:17;1.30;99.90
21298;DHT22;10808;48.010;11.326;2023-01-23T17:03:53;1.30;99.90
21298;DHT22;10808;48.010;11.326;2023-01-23T17:06:20;1.40;99.90
21298;DHT22;10808;48.010;11.326;2023-01-23T17:08:46;1.40;99.90